sensor_id;sensor_type;location;lat;lon;timestamp;temperature;humidity
33269;DHT22;19640;50.944;5.260;2023-01-08T00:01:59;10.90;99.90
33269;DHT22;19640;50.944;5.260;2023-01-08T00:04:25;11.00;99.90
33269;DHT22;19640;50.944;5.260;2023-01-08T00:06:51;11.00;99.90
33269;DHT22;19640;50.944;5.260;2023-01-08T00:09:17;11.00;99.90
33269;DHT22;19640;50.944;5.260;2023-01-08T00:11:43;11.10;99.90
33269;DHT22;19640;50.944;5.260;2023-01-08T00:14:10;11.00;99.90
33269;DHT22;19640;50.944;5.260;2023-01-08T00:16:35;11.00;99.90
33269;DHT22;19640;50.944;5.260;2023-01-08T00:19:01;11.10;99.90
33269;DHT22;19640;50.944;5.260;2023-01-08T00:21:28;11.00;99.90
33269;DHT22;19640;50.944;5.260;2023-01-08T00:23:53;10.80;99.90
33269;DHT22;19640;50.944;5.260;2023-01-08T00:26:19;10.90;99.90
33269;DHT22;19640;50.944;5.260;2023-01-08T00:28:45;11.00;99.90
33269;DHT22;19640;50.944;5.260;2023-01-08T00:31:12;11.00;99.90
33269;DHT22;19640;50.944;5.260;2023-01-08T00:33:39;11.00;99.90
33269;DHT22;19640;50.944;5.260;2023-01-08T00:36:10;11.00;99.90
33269;DHT22;19640;50.944;5.260;2023-01-08T00:38:36;11.10;99.90
33269;DHT22;19640;50.944;5.260;2023-01-08T00:41:03;11.10;99.90
33269;DHT22;19640;50.944;5.260;2023-01-08T00:43:29;11.10;99.90
33269;DHT22;19640;50.944;5.260;2023-01-08T00:45:54;11.10;99.90
33269;DHT22;19640;50.944;5.260;2023-01-08T00:48:21;11.10;99.90
33269;DHT22;19640;50.944;5.260;2023-01-08T00:50:47;11.10;99.90
33269;DHT22;19640;50.944;5.260;2023-01-08T00:53:14;11.00;99.90
33269;DHT22;19640;50.944;5.260;2023-01-08T00:55:39;11.10;99.90
33269;DHT22;19640;50.944;5.260;2023-01-08T00:58:05;11.20;99.90
33269;DHT22;19640;50.944;5.260;2023-01-08T01:00:31;11.10;99.90
33269;DHT22;19640;50.944;5.260;2023-01-08T01:02:56;11.20;99.90
33269;DHT22;19640;50.944;5.260;2023-01-08T01:05:22;11.10;99.90
33269;DHT22;19640;50.944;5.260;2023-01-08T01:07:47;11.10;99.90
33269;DHT22;19640;50.944;5.260;2023-01-08T01:10:14;11.10;99.90
33269;DHT22;19640;50.944;5.260;2023-01-08T01:12:41;11.10;99.90
33269;DHT22;19640;50.944;5.260;2023-01-08T01:15:09;11.30;99.90
33269;DHT22;19640;50.944;5.260;2023-01-08T01:17:37;11.30;99.90
33269;DHT22;19640;50.944;5.260;2023-01-08T01:20:04;11.30;99.90
33269;DHT22;19640;50.944;5.260;2023-01-08T01:22:30;11.20;99.90
33269;DHT22;19640;50.944;5.260;2023-01-08T01:24:56;11.10;99.90
33269;DHT22;19640;50.944;5.260;2023-01-08T01:27:23;11.10;99.90
33269;DHT22;19640;50.944;5.260;2023-01-08T01:29:49;11.20;99.90
33269;DHT22;19640;50.944;5.260;2023-01-08T01:32:14;11.10;99.90
33269;DHT22;19640;50.944;5.260;2023-01-08T01:34:40;11.10;99.90
33269;DHT22;19640;50.944;5.260;2023-01-08T01:37:06;11.20;99.90
33269;DHT22;19640;50.944;5.260;2023-01-08T01:39:32;11.20;99.90
33269;DHT22;19640;50.944;5.260;2023-01-08T01:41:57;11.20;99.90
33269;DHT22;19640;50.944;5.260;2023-01-08T01:47:34;11.10;99.90
33269;DHT22;19640;50.944;5.260;2023-01-08T01:52:29;11.00;99.90
33269;DHT22;19640;50.944;5.260;2023-01-08T01:54:56;11.10;99.90
33269;DHT22;19640;50.944;5.260;2023-01-08T01:57:24;11.00;99.90
33269;DHT22;19640;50.944;5.260;2023-01-08T01:59:51;10.90;99.90
33269;DHT22;19640;50.944;5.260;2023-01-08T02:02:18;10.90;99.90
33269;DHT22;19640;50.944;5.260;2023-01-08T02:04:44;11.10;99.90
33269;DHT22;19640;50.944;5.260;2023-01-08T02:10:18;11.10;99.90
33269;DHT22;19640;50.944;5.260;2023-01-08T02:12:50;11.00;99.90
33269;DHT22;19640;50.944;5.260;2023-01-08T02:15:44;11.10;99.90
33269;DHT22;19640;50.944;5.260;2023-01-08T02:18:49;11.10;99.90
33269;DHT22;19640;50.944;5.260;2023-01-08T02:24:32;11.00;99.90
33269;DHT22;19640;50.944;5.260;2023-01-08T02:27:07;11.10;99.90
33269;DHT22;19640;50.944;5.260;2023-01-08T02:29:33;11.00;99.90
33269;DHT22;19640;50.944;5.260;2023-01-08T02:31:59;11.10;99.90
33269;DHT22;19640;50.944;5.260;2023-01-08T02:34:26;11.10;99.90
33269;DHT22;19640;50.944;5.260;2023-01-08T02:36:54;11.10;99.90
33269;DHT22;19640;50.944;5.260;2023-01-08T02:39:33;10.90;99.90
33269;DHT22;19640;50.944;5.260;2023-01-08T02:44:46;10.90;99.90
33269;DHT22;19640;50.944;5.260;2023-01-08T02:47:28;11.00;99.90
33269;DHT22;19640;50.944;5.260;2023-01-08T02:50:07;11.10;99.90
33269;DHT22;19640;50.944;5.260;2023-01-08T02:52:37;10.90;99.90
33269;DHT22;19640;50.944;5.260;2023-01-08T02:55:05;11.10;99.90
33269;DHT22;19640;50.944;5.260;2023-01-08T02:57:32;11.00;99.90
33269;DHT22;19640;50.944;5.260;2023-01-08T02:59:58;10.90;99.90
33269;DHT22;19640;50.944;5.260;2023-01-08T03:02:25;10.80;99.90
33269;DHT22;19640;50.944;5.260;2023-01-08T03:04:59;10.80;99.90
33269;DHT22;19640;50.944;5.260;2023-01-08T03:07:26;10.80;99.90
33269;DHT22;19640;50.944;5.260;2023-01-08T03:09:51;10.80;99.90
33269;DHT22;19640;50.944;5.260;2023-01-08T03:12:29;10.90;99.90
33269;DHT22;19640;50.944;5.260;2023-01-08T03:15:06;10.90;99.90
33269;DHT22;19640;50.944;5.260;2023-01-08T03:17:36;10.90;99.90
33269;DHT22;19640;50.944;5.260;2023-01-08T03:20:22;10.80;99.90
33269;DHT22;19640;50.944;5.260;2023-01-08T03:22:54;10.80;99.90
33269;DHT22;19640;50.944;5.260;2023-01-08T03:25:22;10.90;99.90
33269;DHT22;19640;50.944;5.260;2023-01-08T03:27:53;11.10;99.90
33269;DHT22;19640;50.944;5.260;2023-01-08T03:30:20;10.90;99.90
33269;DHT22;19640;50.944;5.260;2023-01-08T03:32:48;10.90;99.90
33269;DHT22;19640;50.944;5.260;2023-01-08T03:35:18;10.90;99.90
33269;DHT22;19640;50.944;5.260;2023-01-08T03:37:50;11.00;99.90
33269;DHT22;19640;50.944;5.260;2023-01-08T03:40:20;11.00;99.90
33269;DHT22;19640;50.944;5.260;2023-01-08T03:42:47;11.10;99.90
33269;DHT22;19640;50.944;5.260;2023-01-08T03:45:13;11.00;99.90
33269;DHT22;19640;50.944;5.260;2023-01-08T03:47:39;10.90;99.90
33269;DHT22;19640;50.944;5.260;2023-01-08T03:50:13;10.80;99.90
33269;DHT22;19640;50.944;5.260;2023-01-08T03:52:40;10.70;99.90
33269;DHT22;19640;50.944;5.260;2023-01-08T03:55:06;10.60;99.90
33269;DHT22;19640;50.944;5.260;2023-01-08T03:57:32;10.50;99.90
33269;DHT22;19640;50.944;5.260;2023-01-08T03:59:57;10.50;99.90
33269;DHT22;19640;50.944;5.260;2023-01-08T04:02:23;10.40;99.90
33269;DHT22;19640;50.944;5.260;2023-01-08T04:04:49;10.50;99.90
33269;DHT22;19640;50.944;5.260;2023-01-08T04:07:15;10.40;99.90
33269;DHT22;19640;50.944;5.260;2023-01-08T04:09:40;10.50;99.90
33269;DHT22;19640;50.944;5.260;2023-01-08T04:12:06;10.50;99.90
33269;DHT22;19640;50.944;5.260;2023-01-08T04:14:32;10.50;99.90
33269;DHT22;19640;50.944;5.260;2023-01-08T04:16:57;10.30;99.90
33269;DHT22;19640;50.944;5.260;2023-01-08T04:19:23;10.30;99.90
33269;DHT22;19640;50.944;5.260;2023-01-08T04:21:50;10.40;99.90
33269;DHT22;19640;50.944;5.260;2023-01-08T04:24:16;10.50;99.90
33269;DHT22;19640;50.944;5.260;2023-01-08T04:26:41;10.40;99.90
33269;DHT22;19640;50.944;5.260;2023-01-08T04:29:07;10.20;99.90
33269;DHT22;19640;50.944;5.260;2023-01-08T04:31:33;10.20;99.90
33269;DHT22;19640;50.944;5.260;2023-01-08T04:33:58;9.90;99.90
33269;DHT22;19640;50.944;5.260;2023-01-08T04:36:24;9.80;99.90
33269;DHT22;19640;50.944;5.260;2023-01-08T04:38:50;9.80;99.90
33269;DHT22;19640;50.944;5.260;2023-01-08T04:41:15;9.70;99.90
33269;DHT22;19640;50.944;5.260;2023-01-08T04:43:42;9.60;99.90
33269;DHT22;19640;50.944;5.260;2023-01-08T04:46:08;9.40;99.90
33269;DHT22;19640;50.944;5.260;2023-01-08T04:48:34;9.40;99.90
33269;DHT22;19640;50.944;5.260;2023-01-08T04:51:01;9.30;99.90
33269;DHT22;19640;50.944;5.260;2023-01-08T04:53:29;9.30;99.90
33269;DHT22;19640;50.944;5.260;2023-01-08T04:55:55;9.20;99.90
33269;DHT22;19640;50.944;5.260;2023-01-08T04:58:20;9.00;99.90
33269;DHT22;19640;50.944;5.260;2023-01-08T05:00:46;9.00;99.90
33269;DHT22;19640;50.944;5.260;2023-01-08T05:03:12;8.90;99.90
33269;DHT22;19640;50.944;5.260;2023-01-08T05:05:39;8.70;99.90
33269;DHT22;19640;50.944;5.260;2023-01-08T05:08:04;8.60;99.90
33269;DHT22;19640;50.944;5.260;2023-01-08T05:10:30;8.70;99.90
33269;DHT22;19640;50.944;5.260;2023-01-08T05:12:59;8.80;99.90
33269;DHT22;19640;50.944;5.260;2023-01-08T05:15:25;8.80;99.90
33269;DHT22;19640;50.944;5.260;2023-01-08T05:18:05;8.80;99.90
33269;DHT22;19640;50.944;5.260;2023-01-08T05:20:31;8.80;99.90
33269;DHT22;19640;50.944;5.260;2023-01-08T05:22:57;8.90;99.90
33269;DHT22;19640;50.944;5.260;2023-01-08T05:25:23;9.00;99.90
33269;DHT22;19640;50.944;5.260;2023-01-08T05:27:49;9.10;99.90
33269;DHT22;19640;50.944;5.260;2023-01-08T05:30:15;9.10;99.90
33269;DHT22;19640;50.944;5.260;2023-01-08T05:32:41;9.10;99.90
33269;DHT22;19640;50.944;5.260;2023-01-08T05:35:07;9.20;99.90
33269;DHT22;19640;50.944;5.260;2023-01-08T05:37:33;9.20;99.90
33269;DHT22;19640;50.944;5.260;2023-01-08T05:39:59;9.00;99.90
33269;DHT22;19640;50.944;5.260;2023-01-08T05:42:25;9.10;99.90
33269;DHT22;19640;50.944;5.260;2023-01-08T05:44:50;9.20;99.90
33269;DHT22;19640;50.944;5.260;2023-01-08T05:47:16;9.20;99.90
33269;DHT22;19640;50.944;5.260;2023-01-08T05:49:41;9.20;99.90
33269;DHT22;19640;50.944;5.260;2023-01-08T05:52:07;9.00;99.90
33269;DHT22;19640;50.944;5.260;2023-01-08T05:54:33;8.80;99.90
33269;DHT22;19640;50.944;5.260;2023-01-08T05:56:58;8.70;99.90
33269;DHT22;19640;50.944;5.260;2023-01-08T05:59:24;8.70;99.90
33269;DHT22;19640;50.944;5.260;2023-01-08T06:01:50;8.70;99.90
33269;DHT22;19640;50.944;5.260;2023-01-08T06:04:15;8.80;99.90
33269;DHT22;19640;50.944;5.260;2023-01-08T06:06:41;8.70;99.90
33269;DHT22;19640;50.944;5.260;2023-01-08T06:09:06;8.60;99.90
33269;DHT22;19640;50.944;5.260;2023-01-08T06:11:32;8.40;99.90
33269;DHT22;19640;50.944;5.260;2023-01-08T06:13:58;8.50;99.90
33269;DHT22;19640;50.944;5.260;2023-01-08T06:16:23;8.60;99.90
33269;DHT22;19640;50.944;5.260;2023-01-08T06:18:49;8.70;99.90
33269;DHT22;19640;50.944;5.260;2023-01-08T06:21:14;8.60;99.90
33269;DHT22;19640;50.944;5.260;2023-01-08T06:23:40;8.60;99.90
33269;DHT22;19640;50.944;5.260;2023-01-08T06:26:06;8.60;99.90
33269;DHT22;19640;50.944;5.260;2023-01-08T06:28:32;8.50;99.90
33269;DHT22;19640;50.944;5.260;2023-01-08T06:31:01;8.50;99.90
33269;DHT22;19640;50.944;5.260;2023-01-08T06:33:27;8.30;99.90
33269;DHT22;19640;50.944;5.260;2023-01-08T06:35:53;8.40;99.90
33269;DHT22;19640;50.944;5.260;2023-01-08T06:38:19;8.30;99.90
33269;DHT22;19640;50.944;5.260;2023-01-08T06:40:48;8.20;99.90
33269;DHT22;19640;50.944;5.260;2023-01-08T06:43:14;8.40;99.90
33269;DHT22;19640;50.944;5.260;2023-01-08T06:45:39;8.30;99.90
33269;DHT22;19640;50.944;5.260;2023-01-08T06:48:06;8.30;99.90
33269;DHT22;19640;50.944;5.260;2023-01-08T06:50:32;8.50;99.90
33269;DHT22;19640;50.944;5.260;2023-01-08T06:52:58;8.40;99.90
33269;DHT22;19640;50.944;5.260;2023-01-08T06:55:25;8.40;99.90
33269;DHT22;19640;50.944;5.260;2023-01-08T06:57:55;8.40;99.90
33269;DHT22;19640;50.944;5.260;2023-01-08T07:00:21;8.40;99.90
33269;DHT22;19640;50.944;5.260;2023-01-08T07:02:49;8.10;99.90
33269;DHT22;19640;50.944;5.260;2023-01-08T07:05:15;8.10;99.90
33269;DHT22;19640;50.944;5.260;2023-01-08T07:07:40;8.10;99.90
33269;DHT22;19640;50.944;5.260;2023-01-08T07:10:06;8.00;99.90
33269;DHT22;19640;50.944;5.260;2023-01-08T07:12:32;8.10;99.90
33269;DHT22;19640;50.944;5.260;2023-01-08T07:14:58;8.10;99.90
33269;DHT22;19640;50.944;5.260;2023-01-08T07:17:23;8.10;99.90
33269;DHT22;19640;50.944;5.260;2023-01-08T07:19:49;8.10;99.90
33269;DHT22;19640;50.944;5.260;2023-01-08T07:22:15;8.00;99.90
33269;DHT22;19640;50.944;5.260;2023-01-08T07:24:40;8.10;99.90
33269;DHT22;19640;50.944;5.260;2023-01-08T07:27:06;8.10;99.90
33269;DHT22;19640;50.944;5.260;2023-01-08T07:29:32;8.10;99.90
33269;DHT22;19640;50.944;5.260;2023-01-08T07:31:57;8.20;99.90
33269;DHT22;19640;50.944;5.260;2023-01-08T07:34:23;8.20;99.90
33269;DHT22;19640;50.944;5.260;2023-01-08T07:36:48;8.10;99.90
33269;DHT22;19640;50.944;5.260;2023-01-08T07:39:14;7.90;99.90
33269;DHT22;19640;50.944;5.260;2023-01-08T07:41:40;7.70;99.90
33269;DHT22;19640;50.944;5.260;2023-01-08T07:44:06;7.60;99.90
33269;DHT22;19640;50.944;5.260;2023-01-08T07:46:31;7.60;99.90
33269;DHT22;19640;50.944;5.260;2023-01-08T07:48:57;7.70;99.90
33269;DHT22;19640;50.944;5.260;2023-01-08T07:51:23;7.70;99.90
33269;DHT22;19640;50.944;5.260;2023-01-08T07:53:49;7.60;99.90
33269;DHT22;19640;50.944;5.260;2023-01-08T07:56:16;7.60;99.90
33269;DHT22;19640;50.944;5.260;2023-01-08T07:58:41;7.60;99.90
33269;DHT22;19640;50.944;5.260;2023-01-08T08:01:09;7.90;99.90
33269;DHT22;19640;50.944;5.260;2023-01-08T08:03:36;8.10;99.90
33269;DHT22;19640;50.944;5.260;2023-01-08T08:06:02;8.30;99.90
33269;DHT22;19640;50.944;5.260;2023-01-08T08:08:27;8.30;99.90
33269;DHT22;19640;50.944;5.260;2023-01-08T08:10:53;8.30;99.90
33269;DHT22;19640;50.944;5.260;2023-01-08T08:13:19;8.30;99.90
33269;DHT22;19640;50.944;5.260;2023-01-08T08:15:44;8.20;99.90
33269;DHT22;19640;50.944;5.260;2023-01-08T08:18:10;8.10;99.90
33269;DHT22;19640;50.944;5.260;2023-01-08T08:20:36;8.10;99.90
33269;DHT22;19640;50.944;5.260;2023-01-08T08:23:05;8.10;99.90
33269;DHT22;19640;50.944;5.260;2023-01-08T08:25:31;8.30;99.90
33269;DHT22;19640;50.944;5.260;2023-01-08T08:27:57;8.40;99.90
33269;DHT22;19640;50.944;5.260;2023-01-08T08:30:24;8.50;99.90
33269;DHT22;19640;50.944;5.260;2023-01-08T08:32:50;8.70;99.90
33269;DHT22;19640;50.944;5.260;2023-01-08T08:35:15;8.60;99.90
33269;DHT22;19640;50.944;5.260;2023-01-08T08:37:41;8.60;99.90
33269;DHT22;19640;50.944;5.260;2023-01-08T08:40:07;8.70;99.90
33269;DHT22;19640;50.944;5.260;2023-01-08T08:42:33;8.90;99.90
33269;DHT22;19640;50.944;5.260;2023-01-08T08:44:58;9.00;99.90
33269;DHT22;19640;50.944;5.260;2023-01-08T08:47:24;9.10;99.90
33269;DHT22;19640;50.944;5.260;2023-01-08T08:49:50;9.30;99.90
33269;DHT22;19640;50.944;5.260;2023-01-08T08:52:15;9.40;99.90
33269;DHT22;19640;50.944;5.260;2023-01-08T08:54:41;9.50;99.90
33269;DHT22;19640;50.944;5.260;2023-01-08T08:57:10;9.50;99.90
33269;DHT22;19640;50.944;5.260;2023-01-08T08:59:36;9.60;99.90
33269;DHT22;19640;50.944;5.260;2023-01-08T09:02:02;9.40;99.90
33269;DHT22;19640;50.944;5.260;2023-01-08T09:04:32;9.50;99.90
33269;DHT22;19640;50.944;5.260;2023-01-08T09:06:58;9.30;99.90
33269;DHT22;19640;50.944;5.260;2023-01-08T09:09:24;9.20;99.90
33269;DHT22;19640;50.944;5.260;2023-01-08T09:11:51;9.10;99.90
33269;DHT22;19640;50.944;5.260;2023-01-08T09:14:17;8.90;99.90
33269;DHT22;19640;50.944;5.260;2023-01-08T09:16:43;8.90;99.90
33269;DHT22;19640;50.944;5.260;2023-01-08T09:19:08;9.00;99.90
33269;DHT22;19640;50.944;5.260;2023-01-08T09:21:35;8.80;99.90
33269;DHT22;19640;50.944;5.260;2023-01-08T09:24:01;8.80;99.90
33269;DHT22;19640;50.944;5.260;2023-01-08T09:26:27;8.70;99.90
33269;DHT22;19640;50.944;5.260;2023-01-08T09:28:54;8.60;99.90
33269;DHT22;19640;50.944;5.260;2023-01-08T09:31:20;8.50;99.90
33269;DHT22;19640;50.944;5.260;2023-01-08T09:33:46;8.50;99.90
33269;DHT22;19640;50.944;5.260;2023-01-08T09:36:12;8.50;99.90
33269;DHT22;19640;50.944;5.260;2023-01-08T09:38:38;8.50;99.90
33269;DHT22;19640;50.944;5.260;2023-01-08T09:41:18;8.60;99.90
33269;DHT22;19640;50.944;5.260;2023-01-08T09:43:48;8.60;99.90
33269;DHT22;19640;50.944;5.260;2023-01-08T09:46:14;8.50;99.90
33269;DHT22;19640;50.944;5.260;2023-01-08T09:48:43;8.60;99.90
33269;DHT22;19640;50.944;5.260;2023-01-08T09:51:15;8.50;99.90
33269;DHT22;19640;50.944;5.260;2023-01-08T09:53:42;8.50;99.90
33269;DHT22;19640;50.944;5.260;2023-01-08T09:56:18;8.50;99.90
33269;DHT22;19640;50.944;5.260;2023-01-08T09:58:52;8.60;99.90
33269;DHT22;19640;50.944;5.260;2023-01-08T10:01:36;8.40;99.90
33269;DHT22;19640;50.944;5.260;2023-01-08T10:04:03;8.50;99.90
33269;DHT22;19640;50.944;5.260;2023-01-08T10:06:30;8.50;99.90
33269;DHT22;19640;50.944;5.260;2023-01-08T10:08:57;8.70;99.90
33269;DHT22;19640;50.944;5.260;2023-01-08T10:11:24;8.80;99.90
33269;DHT22;19640;50.944;5.260;2023-01-08T10:13:53;8.70;99.90
33269;DHT22;19640;50.944;5.260;2023-01-08T10:16:34;8.90;99.90
33269;DHT22;19640;50.944;5.260;2023-01-08T10:19:02;8.90;99.90
33269;DHT22;19640;50.944;5.260;2023-01-08T10:21:31;9.00;99.90
33269;DHT22;19640;50.944;5.260;2023-01-08T10:23:57;8.90;99.90
33269;DHT22;19640;50.944;5.260;2023-01-08T10:26:31;9.20;99.90
33269;DHT22;19640;50.944;5.260;2023-01-08T10:29:15;9.30;99.90
33269;DHT22;19640;50.944;5.260;2023-01-08T10:31:45;9.20;99.90
33269;DHT22;19640;50.944;5.260;2023-01-08T10:34:22;9.20;99.90
33269;DHT22;19640;50.944;5.260;2023-01-08T10:36:48;9.40;99.90
33269;DHT22;19640;50.944;5.260;2023-01-08T10:39:22;9.40;99.90
33269;DHT22;19640;50.944;5.260;2023-01-08T10:41:51;9.50;99.90
33269;DHT22;19640;50.944;5.260;2023-01-08T10:44:19;9.50;99.90
33269;DHT22;19640;50.944;5.260;2023-01-08T10:46:47;9.60;99.90
33269;DHT22;19640;50.944;5.260;2023-01-08T10:51:50;9.60;99.90
33269;DHT22;19640;50.944;5.260;2023-01-08T10:54:33;9.70;99.90
33269;DHT22;19640;50.944;5.260;2023-01-08T10:56:59;9.80;99.90
33269;DHT22;19640;50.944;5.260;2023-01-08T10:59:25;9.70;99.90
33269;DHT22;19640;50.944;5.260;2023-01-08T11:01:53;9.80;99.90
33269;DHT22;19640;50.944;5.260;2023-01-08T11:04:31;9.80;99.90
33269;DHT22;19640;50.944;5.260;2023-01-08T11:07:00;9.80;99.90
33269;DHT22;19640;50.944;5.260;2023-01-08T11:09:31;9.90;99.90
33269;DHT22;19640;50.944;5.260;2023-01-08T11:11:58;9.90;99.90
33269;DHT22;19640;50.944;5.260;2023-01-08T11:14:31;9.80;99.90
33269;DHT22;19640;50.944;5.260;2023-01-08T11:16:58;9.90;99.90
33269;DHT22;19640;50.944;5.260;2023-01-08T11:19:29;10.00;99.90
33269;DHT22;19640;50.944;5.260;2023-01-08T11:22:17;10.00;99.90
33269;DHT22;19640;50.944;5.260;2023-01-08T11:24:44;10.00;99.90
33269;DHT22;19640;50.944;5.260;2023-01-08T11:27:24;10.00;99.90
33269;DHT22;19640;50.944;5.260;2023-01-08T11:32:42;10.30;99.90
33269;DHT22;19640;50.944;5.260;2023-01-08T11:35:28;10.40;99.90
33269;DHT22;19640;50.944;5.260;2023-01-08T11:37:58;10.40;99.90
33269;DHT22;19640;50.944;5.260;2023-01-08T11:56:39;10.30;99.90
33269;DHT22;19640;50.944;5.260;2023-01-08T11:59:16;10.20;99.90
33269;DHT22;19640;50.944;5.260;2023-01-08T12:02:02;10.40;99.90
33269;DHT22;19640;50.944;5.260;2023-01-08T12:04:57;10.40;99.90
33269;DHT22;19640;50.944;5.260;2023-01-08T12:07:43;10.50;99.90
33269;DHT22;19640;50.944;5.260;2023-01-08T12:10:27;10.50;99.90
33269;DHT22;19640;50.944;5.260;2023-01-08T12:21:26;10.40;99.90
33269;DHT22;19640;50.944;5.260;2023-01-08T12:32:41;10.70;99.90
33269;DHT22;19640;50.944;5.260;2023-01-08T12:37:50;10.70;99.90
33269;DHT22;19640;50.944;5.260;2023-01-08T12:40:36;10.60;99.90
33269;DHT22;19640;50.944;5.260;2023-01-08T12:43:10;10.70;99.90
33269;DHT22;19640;50.944;5.260;2023-01-08T12:45:43;10.60;99.90
33269;DHT22;19640;50.944;5.260;2023-01-08T12:48:17;10.80;99.90
33269;DHT22;19640;50.944;5.260;2023-01-08T12:57:13;11.10;99.90
33269;DHT22;19640;50.944;5.260;2023-01-08T13:07:51;11.10;99.90
33269;DHT22;19640;50.944;5.260;2023-01-08T13:13:01;11.30;99.90
33269;DHT22;19640;50.944;5.260;2023-01-08T13:15:31;11.30;99.90
33269;DHT22;19640;50.944;5.260;2023-01-08T13:18:13;11.20;99.90
33269;DHT22;19640;50.944;5.260;2023-01-08T13:20:40;11.00;99.90
33269;DHT22;19640;50.944;5.260;2023-01-08T13:23:06;11.00;99.90
33269;DHT22;19640;50.944;5.260;2023-01-08T13:25:36;11.00;99.90
33269;DHT22;19640;50.944;5.260;2023-01-08T13:28:26;11.10;99.90
33269;DHT22;19640;50.944;5.260;2023-01-08T13:30:53;10.90;99.90
33269;DHT22;19640;50.944;5.260;2023-01-08T13:36:27;11.00;99.90
33269;DHT22;19640;50.944;5.260;2023-01-08T13:39:20;11.00;99.90
33269;DHT22;19640;50.944;5.260;2023-01-08T13:42:00;10.90;99.90
33269;DHT22;19640;50.944;5.260;2023-01-08T13:44:30;11.00;99.90
33269;DHT22;19640;50.944;5.260;2023-01-08T13:47:04;11.00;99.90
33269;DHT22;19640;50.944;5.260;2023-01-08T13:49:43;11.00;99.90
33269;DHT22;19640;50.944;5.260;2023-01-08T13:55:05;11.00;99.90
33269;DHT22;19640;50.944;5.260;2023-01-08T13:57:39;11.10;99.90
33269;DHT22;19640;50.944;5.260;2023-01-08T14:00:09;11.10;99.90
33269;DHT22;19640;50.944;5.260;2023-01-08T14:02:43;11.10;99.90
33269;DHT22;19640;50.944;5.260;2023-01-08T14:05:24;10.90;99.90
33269;DHT22;19640;50.944;5.260;2023-01-08T14:07:50;10.90;99.90
33269;DHT22;19640;50.944;5.260;2023-01-08T14:10:16;10.90;99.90
33269;DHT22;19640;50.944;5.260;2023-01-08T14:12:42;10.70;99.90
33269;DHT22;19640;50.944;5.260;2023-01-08T14:15:26;10.90;99.90
33269;DHT22;19640;50.944;5.260;2023-01-08T14:17:54;10.90;99.90
33269;DHT22;19640;50.944;5.260;2023-01-08T14:20:35;10.90;99.90
33269;DHT22;19640;50.944;5.260;2023-01-08T14:23:18;10.90;99.90
33269;DHT22;19640;50.944;5.260;2023-01-08T14:25:47;10.70;99.90
33269;DHT22;19640;50.944;5.260;2023-01-08T14:28:19;10.70;99.90
33269;DHT22;19640;50.944;5.260;2023-01-08T14:30:54;10.50;99.90
33269;DHT22;19640;50.944;5.260;2023-01-08T14:33:23;10.50;99.90
33269;DHT22;19640;50.944;5.260;2023-01-08T14:35:51;10.50;99.90
33269;DHT22;19640;50.944;5.260;2023-01-08T14:38:19;10.40;99.90
33269;DHT22;19640;50.944;5.260;2023-01-08T14:40:49;10.60;99.90
33269;DHT22;19640;50.944;5.260;2023-01-08T14:43:17;10.30;99.90
33269;DHT22;19640;50.944;5.260;2023-01-08T14:45:49;10.50;99.90
33269;DHT22;19640;50.944;5.260;2023-01-08T14:51:02;10.50;99.90
33269;DHT22;19640;50.944;5.260;2023-01-08T14:53:32;10.60;99.90
33269;DHT22;19640;50.944;5.260;2023-01-08T14:56:00;10.60;99.90
33269;DHT22;19640;50.944;5.260;2023-01-08T14:58:28;10.70;99.90
33269;DHT22;19640;50.944;5.260;2023-01-08T15:01:05;10.80;99.90
33269;DHT22;19640;50.944;5.260;2023-01-08T15:03:40;10.90;99.90
33269;DHT22;19640;50.944;5.260;2023-01-08T15:06:07;10.80;99.90
33269;DHT22;19640;50.944;5.260;2023-01-08T15:08:40;10.90;99.90
33269;DHT22;19640;50.944;5.260;2023-01-08T15:13:48;10.90;99.90
33269;DHT22;19640;50.944;5.260;2023-01-08T15:16:33;10.80;99.90
33269;DHT22;19640;50.944;5.260;2023-01-08T15:21:38;10.60;99.90
33269;DHT22;19640;50.944;5.260;2023-01-08T15:24:05;10.40;99.90
33269;DHT22;19640;50.944;5.260;2023-01-08T15:26:32;10.40;99.90
33269;DHT22;19640;50.944;5.260;2023-01-08T15:29:00;10.20;99.90
33269;DHT22;19640;50.944;5.260;2023-01-08T15:31:31;10.20;99.90
33269;DHT22;19640;50.944;5.260;2023-01-08T15:33:59;10.20;99.90
33269;DHT22;19640;50.944;5.260;2023-01-08T15:36:25;10.20;99.90
33269;DHT22;19640;50.944;5.260;2023-01-08T15:38:51;10.10;99.90
33269;DHT22;19640;50.944;5.260;2023-01-08T15:41:22;10.10;99.90
33269;DHT22;19640;50.944;5.260;2023-01-08T15:44:08;10.00;99.90
33269;DHT22;19640;50.944;5.260;2023-01-08T15:46:34;10.10;99.90
33269;DHT22;19640;50.944;5.260;2023-01-08T15:49:00;10.00;99.90
33269;DHT22;19640;50.944;5.260;2023-01-08T15:51:27;10.00;99.90
33269;DHT22;19640;50.944;5.260;2023-01-08T15:53:54;10.00;99.90
33269;DHT22;19640;50.944;5.260;2023-01-08T15:56:19;9.90;99.90
33269;DHT22;19640;50.944;5.260;2023-01-08T15:58:45;9.90;99.90
33269;DHT22;19640;50.944;5.260;2023-01-08T16:01:11;9.90;99.90
33269;DHT22;19640;50.944;5.260;2023-01-08T16:03:36;10.00;99.90
33269;DHT22;19640;50.944;5.260;2023-01-08T16:06:06;9.80;99.90
33269;DHT22;19640;50.944;5.260;2023-01-08T16:08:32;10.00;99.90
33269;DHT22;19640;50.944;5.260;2023-01-08T16:10:59;9.90;99.90
33269;DHT22;19640;50.944;5.260;2023-01-08T16:13:27;9.70;99.90
33269;DHT22;19640;50.944;5.260;2023-01-08T16:15:53;9.70;99.90
33269;DHT22;19640;50.944;5.260;2023-01-08T16:18:20;9.80;99.90
33269;DHT22;19640;50.944;5.260;2023-01-08T16:20:46;9.70;99.90
33269;DHT22;19640;50.944;5.260;2023-01-08T16:23:12;9.80;99.90
33269;DHT22;19640;50.944;5.260;2023-01-08T16:25:38;9.70;99.90
33269;DHT22;19640;50.944;5.260;2023-01-08T16:28:04;9.60;99.90
33269;DHT22;19640;50.944;5.260;2023-01-08T16:30:30;9.80;99.90
33269;DHT22;19640;50.944;5.260;2023-01-08T16:32:55;9.70;99.90
33269;DHT22;19640;50.944;5.260;2023-01-08T16:35:21;9.70;99.90
33269;DHT22;19640;50.944;5.260;2023-01-08T16:37:47;9.70;99.90
33269;DHT22;19640;50.944;5.260;2023-01-08T16:40:13;9.70;99.90
33269;DHT22;19640;50.944;5.260;2023-01-08T16:42:39;9.70;99.90
33269;DHT22;19640;50.944;5.260;2023-01-08T16:45:06;9.60;99.90
33269;DHT22;19640;50.944;5.260;2023-01-08T16:47:38;9.60;99.90
33269;DHT22;19640;50.944;5.260;2023-01-08T16:50:04;9.40;99.90
33269;DHT22;19640;50.944;5.260;2023-01-08T16:52:30;9.30;99.90
33269;DHT22;19640;50.944;5.260;2023-01-08T16:54:56;9.30;99.90
33269;DHT22;19640;50.944;5.260;2023-01-08T16:57:22;9.40;99.90
33269;DHT22;19640;50.944;5.260;2023-01-08T16:59:47;9.30;99.90
33269;DHT22;19640;50.944;5.260;2023-01-08T17:02:13;9.00;99.90
33269;DHT22;19640;50.944;5.260;2023-01-08T17:04:39;8.90;99.90
33269;DHT22;19640;50.944;5.260;2023-01-08T17:07:05;8.80;99.90
33269;DHT22;19640;50.944;5.260;2023-01-08T17:09:31;8.60;99.90
33269;DHT22;19640;50.944;5.260;2023-01-08T17:11:56;8.60;99.90
33269;DHT22;19640;50.944;5.260;2023-01-08T17:14:22;8.40;99.90